Skip Navigation Links
NOAA logo - Click to go to the NOAA homepage
NOAA's National Weather Service
Alaska Aviation Weather Unit
  NWS logo - Click to go to the NWS homepage
Left Navbar Graphic     22 AKDT = 06 GMT

   
NOAA is celebrating 200 years of science, service, and stewardship. Visit the NOAA 200th celebration Web site to learn more.
USA.gov is the U.S. Government's official Web portal to all Federal, state and local government Web resources and services.
Facebook
NWS on Facebook

Important Change Regarding the AAWU Web Presence

 

Over the last several months, the AAWU has been working to navigate its webpages to a nationally supported server. Security, as well as other needs, have necessitated the change.  We have been given an extension for the site changeover while we diligently work at addressing feedback received. As of July 14, 2017, aawu.arh.noaa.gov will be discontinued. The new AAWU web address is weather.gov/aawu. It is now live and will run in-parallel with the old site until it is discontinued on July 14, 2017. Please continue to send any feedback or questions regarding the new webpages to nws.ar.aawu.webauthors@noaa.gov.  Thank you for your patience during this time of transition.
AAWU Home :: Display TAF Add Bookmark
TAF PAED 260535Z 2605/2709 VRB06KT 9999 SCT009 BKN015 OVC020
      610901 QNH2986INS
      TEMPO 2605/2607 9000 -SHRA BKN009
      BECMG 2608/2609 VRB06KT 8000 -RA BKN009 OVC020 610802
      QNH2984INS
      BECMG 2703/2704 VRB06KT 9999 VCSH FEW008 SCT015 BKN050
      OVC200
      QNH2983INS TX18/2703Z TN11/2614Z=

PAED 260018Z AUTO 34005KT 10SM -DZ FEW015 SCT041 OVC090 16/14 A2995= METAR PAED 260058Z AUTO 32004KT 10SM -DZ FEW045 OVC090 17/14 A2994= PAED 260118Z AUTO 32004KT 10SM -RA BKN048 OVC080 16/14 A2993= METAR PAED 260158Z AUTO 29003KT 10SM -RA SCT025 OVC041 16/14 A2993= PAED 260247Z AUTO 00000KT 10SM OVC021 16/14 A2993= METAR PAED 260258Z AUTO 00000KT 10SM OVC021 16/14 A2993= PAED 260259Z AUTO 00000KT 10SM -DZ OVC021 16/14 A2993= PAED 260307Z AUTO 00000KT 10SM OVC021 16/14 A2993= PAED 260347Z AUTO 29005KT 10SM OVC019 15/15 A2992= METAR PAED 260358Z AUTO 29005KT 10SM OVC018 15/15 A2992= PAED 260428Z AUTO 31003KT 10SM OVC013 15/15 A2991= PAED 260442Z AUTO 00000KT 10SM -RA OVC012 15/15 A2991= PAED 260449Z AUTO 00000KT 10SM OVC010 15/15 A2991= METAR PAED 260458Z AUTO 25004KT 10SM OVC009 15/15 A2991= PAED 260520Z AUTO 24004KT 10SM -DZ BKN009 OVC016 14/14 A2991= PAED 260527Z AUTO 24003KT 10SM BKN009 OVC015 14/14 A2991= PAED 260532Z AUTO 26003KT 10SM -DZ SCT009 OVC015 14/14 A2991= METAR PAED 260558Z AUTO 23003KT 10SM -DZ OVC015 14/14 A2991= PAED 260618Z AUTO 00000KT 9SM -DZ SCT003 BKN013 OVC018 14/14 A2991=
 Alaska TAF Map

NOAA's National Weather Service
Alaska Aviation Weather Unit
6930 Sand Lake Road
Anchorage, AK 99502-1845
Disclaimer
Credits
Glossary
Privacy Policy
About Us
Career Opportunities
Contact AAWU Internet Services Site last modified: April, 17th 2012